Time;durP1;ratioP1;P1;durP2;ratioP2;P2;SDS_P1;SDS_P2;PMS_P1;PMS_P2;Temp;Humidity;BMP_temperature;BMP_pressure;BME280_temperature;BME280_humidity;BME280_pressure;Samples;Min_cycle;Max_cycle;Signal;HPM_P1;HPM_P2
2023/10/13 00:00:57;;;;;;;13.30;2.80;;;;;;;7.44;97.28;99612.81;109603;1251;73870;-66
2023/10/13 00:03:44;;;;;;;18.10;3.30;;;;;;;7.41;97.45;99611.48;109695;1255;67576;-62
2023/10/13 00:06:31;;;;;;;13.10;2.70;;;;;;;7.38;97.83;99621.58;109622;1250;71184;-63
2023/10/13 00:09:24;;;;;;;11.80;2.60;;;;;;;7.35;98.25;99626.38;109608;1251;57851;-62
2023/10/13 00:12:13;;;;;;;12.60;2.70;;;;;;;7.32;98.52;99626.95;109605;1250;58296;-63
2023/10/13 00:15:03;;;;;;;14.50;2.60;;;;;;;7.28;98.79;99634.95;109484;1251;73125;-64
2023/10/13 00:17:50;;;;;;;12.70;2.50;;;;;;;7.27;98.78;99633.48;109669;1251;68763;-65
2023/10/13 00:20:37;;;;;;;16.90;2.30;;;;;;;7.23;98.54;99632.86;109537;1251;71343;-63
2023/10/13 00:23:26;;;;;;;16.80;2.60;;;;;;;7.20;99.15;99623.89;109545;1251;57960;-63
2023/10/13 00:26:18;;;;;;;12.70;2.60;;;;;;;7.13;99.83;99619.06;109742;1251;58834;-63
2023/10/13 00:29:28;;;;;;;11.50;2.30;;;;;;;7.14;99.66;99634.75;109657;1251;73980;-62
2023/10/13 00:32:16;;;;;;;14.80;3.00;;;;;;;7.11;99.96;99646.42;109705;1250;66947;-64
2023/10/13 00:35:05;;;;;;;16.20;2.70;;;;;;;7.08;100.00;99636.02;109081;1255;72555;-63
2023/10/13 00:37:55;;;;;;;15.40;2.90;;;;;;;7.07;100.00;99632.77;109120;1255;58720;-64
2023/10/13 00:40:42;;;;;;;14.00;2.50;;;;;;;7.04;100.00;99626.09;109171;1256;58969;-63
2023/10/13 00:43:34;;;;;;;12.20;2.60;;;;;;;7.02;100.00;99628.88;109236;1255;73960;-63
2023/10/13 00:46:22;;;;;;;11.50;2.10;;;;;;;7.01;100.00;99626.64;109183;1257;67734;-64
2023/10/13 00:49:09;;;;;;;11.50;2.40;;;;;;;7.00;100.00;99625.14;109039;1257;72502;-62
2023/10/13 00:51:56;;;;;;;15.60;3.20;;;;;;;6.98;100.00;99628.40;109111;1255;60406;-63
2023/10/13 00:54:46;;;;;;;11.80;2.60;;;;;;;6.96;100.00;99629.61;109173;1255;58002;-61
2023/10/13 00:57:33;;;;;;;11.50;2.30;;;;;;;6.94;100.00;99618.31;109191;1255;73171;-65
2023/10/13 01:00:24;;;;;;;14.60;2.60;;;;;;;6.91;100.00;99615.32;109176;1259;67653;-62
2023/10/13 01:03:12;;;;;;;11.80;2.50;;;;;;;6.89;100.00;99620.98;109201;1259;70257;-64
2023/10/13 01:05:59;;;;;;;13.00;2.70;;;;;;;6.85;100.00;99629.35;109475;1251;59291;-64
2023/10/13 01:08:50;;;;;;;14.30;2.70;;;;;;;6.82;100.00;99636.58;109610;1251;60264;-64
2023/10/13 01:11:40;;;;;;;12.80;3.00;;;;;;;6.80;100.00;99643.24;109603;1251;71627;-62
2023/10/13 01:14:28;;;;;;;11.90;2.90;;;;;;;6.79;100.00;99640.33;109647;1251;66496;-62
2023/10/13 01:17:15;;;;;;;12.70;2.50;;;;;;;6.77;100.00;99633.56;109403;1255;71471;-64
2023/10/13 01:20:01;;;;;;;14.80;2.90;;;;;;;6.76;100.00;99632.92;109581;1250;59572;-64
2023/10/13 01:22:55;;;;;;;16.70;3.60;;;;;;;6.75;100.00;99633.19;109614;1251;60133;-64
2023/10/13 01:25:42;;;;;;;18.50;3.10;;;;;;;6.74;100.00;99640.67;109660;1251;74035;-63
2023/10/13 01:28:28;;;;;;;14.50;2.80;;;;;;;6.72;100.00;99637.05;109637;1251;68196;-65
2023/10/13 01:31:24;;;;;;;15.50;3.00;;;;;;;6.72;100.00;99637.83;109643;1251;72318;-63
2023/10/13 01:34:12;;;;;;;16.10;3.00;;;;;;;6.71;100.00;99640.55;109621;1251;60425;-63
2023/10/13 01:36:59;;;;;;;14.70;3.60;;;;;;;6.69;100.00;99646.11;109581;1251;59991;-63
2023/10/13 01:39:47;;;;;;;14.70;2.80;;;;;;;6.70;100.00;99652.79;109627;1251;73916;-64
2023/10/13 01:42:36;;;;;;;15.20;2.40;;;;;;;6.69;100.00;99645.73;109644;1251;68650;-62
2023/10/13 01:45:28;;;;;;;16.70;3.20;;;;;;;6.70;100.00;99642.72;109546;1251;72620;-63
2023/10/13 01:48:18;;;;;;;12.00;2.70;;;;;;;6.65;100.00;99636.36;109678;1251;57257;-63
2023/10/13 01:51:05;;;;;;;11.70;3.10;;;;;;;6.71;100.00;99651.05;109498;1251;60067;-62
2023/10/13 01:53:56;;;;;;;13.80;3.20;;;;;;;6.71;100.00;99651.98;109630;1250;74121;-62
2023/10/13 01:56:43;;;;;;;13.60;2.70;;;;;;;6.69;100.00;99648.43;109613;1250;67844;-64
2023/10/13 01:59:30;;;;;;;13.00;2.20;;;;;;;6.67;100.00;99654.17;109607;1251;72876;-63
2023/10/13 02:02:28;;;;;;;12.00;2.30;;;;;;;6.64;100.00;99658.58;108827;1251;1002211;-63
2023/10/13 02:05:16;;;;;;;13.10;2.40;;;;;;;6.63;100.00;99665.02;109621;1251;60138;-64
2023/10/13 02:08:03;;;;;;;11.10;2.90;;;;;;;6.62;100.00;99663.34;109767;1250;71637;-63
2023/10/13 02:10:58;;;;;;;12.10;2.60;;;;;;;6.59;100.00;99650.67;109552;1251;66217;-64
2023/10/13 02:13:48;;;;;;;15.10;2.30;;;;;;;6.56;100.00;99645.77;109640;1251;72663;-64
2023/10/13 02:16:36;;;;;;;11.80;2.30;;;;;;;6.54;100.00;99645.23;109626;1250;59992;-62
2023/10/13 02:19:27;;;;;;;12.00;2.60;;;;;;;6.51;100.00;99643.07;109521;1251;59109;-63
2023/10/13 02:22:31;;;;;;;11.20;2.50;;;;;;;6.50;100.00;99648.45;109680;1251;72830;-62
2023/10/13 02:26:00;;;;;;;10.90;2.50;;;;;;;6.47;100.00;99654.64;109315;1253;67918;-64
2023/10/13 02:28:34;;;;;;;12.50;2.20;;;;;;;6.44;100.00;99662.42;109559;1251;73488;-62
2023/10/13 02:31:24;;;;;;;11.10;2.70;;;;;;;6.41;100.00;99668.27;109494;1251;59707;-62
2023/10/13 02:34:13;;;;;;;13.20;2.40;;;;;;;6.37;100.00;99669.20;109656;1250;58830;-62
2023/10/13 02:37:00;;;;;;;14.20;2.90;;;;;;;6.34;100.00;99666.27;109409;1251;72819;-65
2023/10/13 02:39:46;;;;;;;14.50;2.80;;;;;;;6.32;100.00;99671.84;109541;1251;66428;-64
2023/10/13 02:42:33;;;;;;;10.30;2.30;;;;;;;6.29;100.00;99667.30;109717;1251;72524;-63
2023/10/13 02:45:25;;;;;;;10.30;3.20;;;;;;;6.26;100.00;99672.60;109685;1250;59581;-64
2023/10/13 02:48:17;;;;;;;14.40;3.20;;;;;;;6.23;100.00;99678.44;109454;1250;58959;-63
2023/10/13 02:51:06;;;;;;;13.60;2.40;;;;;;;6.21;100.00;99677.70;109753;1251;72767;-63
2023/10/13 02:53:53;;;;;;;10.80;2.60;;;;;;;6.18;100.00;99683.68;109511;1251;66353;-64
2023/10/13 02:56:49;;;;;;;17.30;3.50;;;;;;;6.12;100.00;99684.08;109725;1251;71415;-66
2023/10/13 02:59:46;;;;;;;10.80;2.40;;;;;;;6.13;100.00;99682.61;109507;1251;57303;-64
2023/10/13 03:02:41;;;;;;;15.00;3.00;;;;;;;6.09;100.00;99686.02;109742;1251;60794;-64
2023/10/13 03:05:31;;;;;;;15.10;2.90;;;;;;;6.08;100.00;99686.09;109542;1251;72201;-62
2023/10/13 03:08:26;;;;;;;11.20;2.60;;;;;;;6.05;100.00;99688.09;109648;1250;68651;-62
2023/10/13 03:11:13;;;;;;;12.00;2.60;;;;;;;6.00;100.00;99688.70;109638;1251;72655;-64
2023/10/13 03:14:06;;;;;;;10.90;2.70;;;;;;;5.97;100.00;99691.02;109555;1251;58089;-64
2023/10/13 03:17:04;;;;;;;10.90;2.50;;;;;;;5.94;100.00;99699.48;109721;1250;59028;-63
2023/10/13 03:19:51;;;;;;;10.90;2.70;;;;;;;5.91;100.00;99691.59;109670;1251;71562;-64
2023/10/13 03:22:37;;;;;;;11.30;2.60;;;;;;;5.88;100.00;99695.83;109737;1251;66436;-64
2023/10/13 03:28:16;;;;;;;14.30;2.60;;;;;;;5.85;100.00;99699.90;109555;1251;59326;-63
2023/10/13 03:31:03;;;;;;;10.50;2.60;;;;;;;5.83;100.00;99707.91;109417;1251;59413;-64
2023/10/13 03:33:56;;;;;;;11.90;2.50;;;;;;;5.82;100.00;99707.81;109549;1251;72796;-64
2023/10/13 03:36:58;;;;;;;10.50;2.50;;;;;;;5.81;100.00;99705.41;109542;1251;68216;-64
2023/10/13 03:39:45;;;;;;;10.40;2.80;;;;;;;5.81;100.00;99710.13;109689;1251;72740;-65
2023/10/13 03:42:32;;;;;;;10.90;2.40;;;;;;;5.83;100.00;99709.52;109463;1251;60572;-63
2023/10/13 03:45:21;;;;;;;11.50;2.80;;;;;;;5.83;100.00;99704.77;109642;1251;59265;-62
2023/10/13 03:48:28;;;;;;;11.90;2.60;;;;;;;5.83;100.00;99701.62;109616;1251;73069;-64
2023/10/13 03:51:17;;;;;;;11.40;2.90;;;;;;;5.83;100.00;99701.23;108742;1256;1003306;-64
2023/10/13 03:54:07;;;;;;;15.00;2.90;;;;;;;5.83;100.00;99698.94;109534;1251;70375;-60
2023/10/13 03:56:55;;;;;;;10.60;2.30;;;;;;;5.84;100.00;99688.46;109533;1251;58146;-64
2023/10/13 03:59:47;;;;;;;12.80;2.90;;;;;;;5.84;100.00;99686.73;109483;1251;60356;-66
2023/10/13 04:02:33;;;;;;;10.90;2.70;;;;;;;5.86;100.00;99694.16;109558;1251;73158;-65
2023/10/13 04:05:35;;;;;;;10.70;2.50;;;;;;;5.88;100.00;99700.37;109539;1251;68138;-64
2023/10/13 04:14:23;;;;;;;15.50;3.70;;;;;;;5.92;100.00;99696.75;109373;1251;58723;-65
2023/10/13 04:17:22;;;;;;;12.40;2.30;;;;;;;5.94;100.00;99694.86;109721;1251;71447;-64
2023/10/13 04:28:50;;;;;;;14.70;2.60;;;;;;;5.84;100.00;99683.57;109421;1250;59004;-67
2023/10/13 04:32:00;;;;;;;16.70;2.70;;;;;;;5.77;100.00;99670.94;109434;1250;72128;-64
2023/10/13 04:34:46;;;;;;;8.40;2.50;;;;;;;5.74;100.00;99671.17;109705;1251;65949;-66
2023/10/13 04:37:48;;;;;;;9.20;2.50;;;;;;;5.69;100.00;99676.95;109569;1251;72490;-63
2023/10/13 04:40:37;;;;;;;10.50;2.80;;;;;;;5.64;100.00;99687.31;109610;1251;57994;-65
2023/10/13 04:43:33;;;;;;;13.10;2.80;;;;;;;5.58;100.00;99690.27;109245;1251;57989;-67
2023/10/13 04:46:35;;;;;;;10.80;2.90;;;;;;;5.55;100.00;99694.90;108786;1251;1002098;-65
2023/10/13 04:52:38;;;;;;;11.40;2.80;;;;;;;5.50;100.00;99688.55;109541;1251;71519;-63
2023/10/13 04:55:43;;;;;;;12.40;3.10;;;;;;;5.46;100.00;99680.48;109575;1250;58543;-65
2023/10/13 05:44:55;;;;;;;14.40;3.70;;;;;;;5.95;100.00;99675.95;109421;1251;60142;-64
2023/10/13 05:50:49;;;;;;;16.10;3.20;;;;;;;6.06;100.00;99673.94;109380;1251;66827;-63
2023/10/13 06:30:56;;;;;;;14.30;3.50;;;;;;;6.56;100.00;99698.31;109333;1251;58766;-64
2023/10/13 06:33:45;;;;;;;16.50;4.30;;;;;;;6.68;100.00;99695.91;109600;1251;71947;-63
2023/10/13 06:36:33;;;;;;;12.30;3.70;;;;;;;6.84;100.00;99701.88;109563;1251;67423;-62
2023/10/13 06:39:37;;;;;;;11.80;3.60;;;;;;;7.03;100.00;99694.38;109442;1251;71552;-65
2023/10/13 06:42:27;;;;;;;16.20;3.10;;;;;;;7.25;100.00;99697.83;109468;1250;57950;-66
2023/10/13 06:45:16;;;;;;;15.00;4.10;;;;;;;7.50;100.00;99697.65;109494;1251;60194;-63
2023/10/13 06:48:04;;;;;;;19.40;4.70;;;;;;;7.90;100.00;99696.04;109713;1250;71530;-63
2023/10/13 06:50:55;;;;;;;12.70;3.70;;;;;;;8.59;99.90;99690.33;109671;1251;66590;-64
2023/10/13 06:53:46;;;;;;;17.00;3.80;;;;;;;9.62;97.77;99688.04;109409;1254;73542;-64
2023/10/13 06:56:32;;;;;;;12.60;3.70;;;;;;;10.58;93.99;99687.91;109522;1251;58805;-65
2023/10/13 06:59:18;;;;;;;11.70;3.70;;;;;;;11.55;88.71;99683.34;109393;1251;60088;-63
2023/10/13 07:02:08;;;;;;;14.40;3.40;;;;;;;12.34;84.40;99682.10;109498;1251;73194;-63
2023/10/13 07:05:14;;;;;;;18.20;3.80;;;;;;;12.79;81.03;99678.37;109664;1251;68864;-65
2023/10/13 07:08:04;;;;;;;12.60;3.10;;;;;;;13.18;76.87;99679.51;109628;1251;72327;-66
2023/10/13 07:11:02;;;;;;;18.70;3.60;;;;;;;13.28;74.42;99675.88;109739;1250;57221;-63
2023/10/13 07:13:52;;;;;;;13.00;3.50;;;;;;;13.30;71.89;99670.20;109482;1251;60226;-64
2023/10/13 07:16:58;;;;;;;12.00;3.30;;;;;;;13.37;72.16;99666.99;109710;1250;73930;-63
2023/10/13 07:19:53;;;;;;;14.00;3.70;;;;;;;13.70;70.96;99664.20;109696;1250;68626;-64
2023/10/13 07:22:39;;;;;;;14.70;3.40;;;;;;;13.32;69.36;99662.20;109480;1253;72620;-63
2023/10/13 07:25:26;;;;;;;14.60;3.70;;;;;;;13.01;70.45;99663.66;109585;1250;58444;-62
2023/10/13 07:28:15;;;;;;;10.60;3.70;;;;;;;12.69;71.12;99660.56;109736;1250;59118;-63
2023/10/13 07:33:49;;;;;;;12.30;3.60;;;;;;;12.20;73.24;99670.42;109713;1251;66633;-63
2023/10/13 07:36:39;;;;;;;12.80;3.60;;;;;;;12.08;74.38;99670.58;109631;1250;71099;-63
2023/10/13 07:39:34;;;;;;;13.00;3.90;;;;;;;12.11;74.16;99671.23;109715;1250;57352;-63
2023/10/13 07:42:21;;;;;;;13.20;3.60;;;;;;;12.04;73.85;99668.04;109561;1251;60181;-63
2023/10/13 07:45:11;;;;;;;14.00;3.40;;;;;;;12.00;73.97;99670.77;109637;1251;73256;-62
2023/10/13 07:47:59;;;;;;;9.40;3.10;;;;;;;11.94;73.51;99669.14;109685;1250;68248;-62
2023/10/13 07:51:22;;;;;;;13.20;2.50;;;;;;;11.89;72.93;99665.59;109613;1251;70204;-62
2023/10/13 07:54:11;;;;;;;15.40;3.00;;;;;;;11.82;72.17;99656.48;109492;1251;59062;-64
2023/10/13 07:56:57;;;;;;;15.60;3.00;;;;;;;11.82;72.47;99654.03;109714;1250;60386;-65
2023/10/13 07:59:53;;;;;;;11.60;3.80;;;;;;;11.75;72.85;99652.48;109764;1250;72924;-64
2023/10/13 08:02:49;;;;;;;14.60;3.70;;;;;;;11.77;72.68;99655.00;109545;1250;67764;-63
2023/10/13 08:08:43;;;;;;;11.50;3.00;;;;;;;11.73;72.94;99656.05;109681;1250;60998;-63
2023/10/13 08:11:34;;;;;;;11.90;3.00;;;;;;;11.75;73.84;99648.20;109602;1251;60125;-63
2023/10/13 08:14:28;;;;;;;11.90;3.50;;;;;;;11.76;74.00;99645.52;109625;1251;72828;-63
2023/10/13 08:17:31;;;;;;;10.70;2.80;;;;;;;11.83;74.12;99640.61;109749;1250;67901;-63
2023/10/13 08:20:18;;;;;;;14.30;3.60;;;;;;;11.83;73.63;99635.76;109710;1250;72564;-64
2023/10/13 08:23:13;;;;;;;11.80;3.40;;;;;;;11.94;73.87;99629.27;109529;1250;57460;-63
2023/10/13 08:40:43;;;;;;;12.80;3.10;;;;;;;12.53;71.24;99619.20;109699;1250;59079;-63
2023/10/13 08:43:43;;;;;;;10.20;2.60;;;;;;;12.40;70.84;99614.13;109615;1251;72810;-62
2023/10/13 08:46:51;;;;;;;10.30;2.30;;;;;;;12.30;71.34;99608.43;109563;1251;67892;-66
2023/10/13 08:49:40;;;;;;;10.00;2.40;;;;;;;12.30;71.28;99602.63;109603;1251;72662;-63
2023/10/13 08:53:26;;;;;;;10.00;2.50;;;;;;;12.16;70.56;99595.52;109397;1251;57214;-63
2023/10/13 08:55:48;;;;;;;10.00;2.30;;;;;;;12.01;70.33;99594.40;109649;1250;60102;-63
2023/10/13 09:01:48;;;;;;;10.90;2.50;;;;;;;11.84;72.00;99599.27;109659;1250;67848;-62
2023/10/13 09:04:35;;;;;;;12.30;2.50;;;;;;;11.78;72.33;99596.27;109494;1252;72666;-61
2023/10/13 09:07:25;;;;;;;9.40;2.10;;;;;;;11.72;72.39;99597.34;109445;1253;58036;-62
2023/10/13 09:10:32;;;;;;;8.10;2.00;;;;;;;11.67;72.16;99589.78;109703;1250;59312;-65
2023/10/13 09:13:20;;;;;;;10.50;2.20;;;;;;;11.64;72.05;99595.34;109398;1254;72931;-65
2023/10/13 09:16:50;;;;;;;12.00;2.30;;;;;;;11.58;72.24;99592.11;109634;1251;66600;-63
2023/10/13 09:19:23;;;;;;;12.20;2.70;;;;;;;11.57;72.56;99588.20;109717;1250;73055;-65
2023/10/13 09:22:19;;;;;;;11.10;2.70;;;;;;;11.57;72.58;99587.23;109485;1251;57439;-63
2023/10/13 09:25:14;;;;;;;13.70;2.80;;;;;;;11.59;72.55;99586.17;109750;1250;60306;-62
2023/10/13 09:28:14;;;;;;;9.20;2.20;;;;;;;11.56;72.54;99584.55;109664;1251;73875;-65
2023/10/13 09:31:01;;;;;;;11.00;2.20;;;;;;;11.52;72.93;99576.30;109635;1250;66855;-62
2023/10/13 09:33:50;;;;;;;8.40;2.60;;;;;;;11.51;72.69;99570.02;109696;1251;72663;-64
2023/10/13 09:36:37;;;;;;;11.20;2.20;;;;;;;11.52;72.65;99557.17;109697;1250;59403;-63
2023/10/13 09:39:29;;;;;;;9.80;2.20;;;;;;;11.55;72.28;99553.83;109611;1251;60060;-63
2023/10/13 09:42:18;;;;;;;10.70;2.20;;;;;;;11.59;72.18;99546.46;109720;1250;73074;-65
2023/10/13 09:45:12;;;;;;;11.20;2.10;;;;;;;11.67;72.21;99539.15;109643;1250;66683;-63
2023/10/13 09:48:06;;;;;;;10.70;2.10;;;;;;;11.76;72.15;99526.72;109650;1250;71172;-64
2023/10/13 09:50:59;;;;;;;9.40;2.10;;;;;;;11.84;71.53;99523.38;109640;1250;57353;-64
2023/10/13 09:53:58;;;;;;;8.30;1.80;;;;;;;11.87;70.86;99520.41;109650;1250;60221;-63
2023/10/13 09:56:56;;;;;;;7.90;1.90;;;;;;;11.89;71.12;99517.77;109654;1250;72050;-64
2023/10/13 09:59:52;;;;;;;12.90;2.40;;;;;;;11.90;71.02;99511.73;109503;1250;68530;-64
2023/10/13 10:02:44;;;;;;;9.10;2.40;;;;;;;11.97;71.22;99502.47;109633;1250;72399;-63
2023/10/13 10:05:34;;;;;;;12.60;2.10;;;;;;;12.01;70.29;99495.42;109695;1250;58640;-64
2023/10/13 10:08:34;;;;;;;9.40;2.20;;;;;;;12.10;70.72;99485.08;109638;1251;60281;-62
2023/10/13 10:12:25;;;;;;;12.60;2.20;;;;;;;12.13;70.51;99477.86;109641;1250;71427;-64
2023/10/13 10:15:34;;;;;;;11.10;2.30;;;;;;;12.30;69.64;99478.94;109030;1259;66813;-64
2023/10/13 10:18:22;;;;;;;10.90;2.30;;;;;;;12.57;68.92;99473.77;108969;1258;73762;-65
2023/10/13 10:21:10;;;;;;;9.10;2.50;;;;;;;12.74;67.83;99462.13;108984;1258;59135;-66
2023/10/13 10:23:57;;;;;;;9.80;2.00;;;;;;;12.93;67.21;99464.99;108977;1260;61340;-62
2023/10/13 10:26:51;;;;;;;8.70;1.90;;;;;;;12.82;67.12;99458.71;109056;1259;72259;-64
2023/10/13 10:29:38;;;;;;;9.80;2.00;;;;;;;12.71;67.95;99460.48;109003;1258;68094;-63
2023/10/13 10:32:36;;;;;;;11.80;2.30;;;;;;;12.67;68.67;99459.61;109042;1258;72966;-63
2023/10/13 10:35:23;;;;;;;9.50;2.00;;;;;;;12.55;68.98;99458.29;109002;1259;57745;-63
2023/10/13 10:38:23;;;;;;;10.50;2.10;;;;;;;12.52;69.36;99445.77;109028;1258;60286;-62
2023/10/13 10:41:13;;;;;;;7.80;1.70;;;;;;;12.42;69.69;99433.70;109002;1259;71641;-63
2023/10/13 10:44:02;;;;;;;9.80;2.10;;;;;;;12.40;70.17;99417.39;108865;1259;268347;-61
2023/10/13 10:46:52;;;;;;;12.50;2.00;;;;;;;12.37;70.66;99416.58;109057;1258;71284;-61
2023/10/13 10:49:38;;;;;;;15.80;2.50;;;;;;;12.35;71.35;99410.89;109016;1259;57338;-62
2023/10/13 10:52:27;;;;;;;10.80;2.10;;;;;;;12.34;71.74;99409.19;109623;1250;60065;-66
2023/10/13 10:55:20;;;;;;;13.00;2.70;;;;;;;12.39;71.88;99409.52;109568;1250;71157;-63
2023/10/13 10:58:23;;;;;;;8.00;2.00;;;;;;;12.44;72.09;99400.63;109569;1251;66257;-62
2023/10/13 11:01:18;;;;;;;9.40;2.10;;;;;;;12.50;71.99;99390.11;109725;1250;73633;-63
2023/10/13 11:04:18;;;;;;;13.10;2.20;;;;;;;12.56;72.25;99384.34;109614;1250;57958;-65
2023/10/13 11:07:06;;;;;;;12.10;2.40;;;;;;;12.52;72.29;99375.52;109658;1250;58042;-65
2023/10/13 11:09:53;;;;;;;8.50;2.20;;;;;;;12.48;73.00;99375.67;109667;1250;70574;-63
2023/10/13 11:12:39;;;;;;;10.20;2.10;;;;;;;12.48;73.30;99370.36;109510;1250;66491;-62
2023/10/13 11:15:33;;;;;;;10.30;2.60;;;;;;;12.53;73.48;99373.40;109635;1250;71205;-63
2023/10/13 11:18:33;;;;;;;7.80;2.10;;;;;;;12.54;73.88;99372.77;109465;1250;59119;-65
2023/10/13 11:21:22;;;;;;;9.50;2.70;;;;;;;12.51;74.44;99371.64;109645;1251;60184;-64
2023/10/13 11:24:08;;;;;;;10.50;2.30;;;;;;;12.53;75.05;99362.41;109618;1251;71873;-65
2023/10/13 11:26:56;;;;;;;9.40;2.40;;;;;;;12.60;75.25;99355.51;109690;1250;67768;-63
2023/10/13 11:29:42;;;;;;;8.50;2.10;;;;;;;12.65;75.47;99343.42;109612;1250;72666;-65
2023/10/13 11:32:28;;;;;;;8.20;1.90;;;;;;;12.65;75.85;99341.83;109664;1250;60280;-61
2023/10/13 11:35:21;;;;;;;10.70;2.70;;;;;;;12.70;75.92;99328.77;109643;1250;60275;-62
2023/10/13 11:38:34;;;;;;;12.30;2.90;;;;;;;12.78;76.46;99326.67;109605;1251;72992;-64
2023/10/13 11:41:19;;;;;;;11.50;2.70;;;;;;;12.85;76.60;99325.95;109690;1250;68861;-62
2023/10/13 11:44:13;;;;;;;11.20;2.60;;;;;;;12.93;76.91;99311.16;109747;1250;71753;-64
2023/10/13 11:47:47;;;;;;;11.30;2.60;;;;;;;13.01;77.18;99295.95;109619;1251;57294;-65
2023/10/13 11:50:09;;;;;;;9.30;2.60;;;;;;;13.06;77.74;99291.35;109723;1250;59333;-65
2023/10/13 11:52:55;;;;;;;13.70;3.30;;;;;;;13.11;78.01;99284.44;109612;1250;71863;-66
2023/10/13 11:55:43;;;;;;;11.90;3.30;;;;;;;13.09;78.78;99273.71;109708;1250;67857;-63
2023/10/13 11:58:29;;;;;;;10.10;3.30;;;;;;;13.10;79.44;99261.70;109653;1250;72628;-63
2023/10/13 12:01:20;;;;;;;11.80;3.60;;;;;;;13.19;79.73;99260.33;109588;1251;60345;-64
2023/10/13 12:07:44;;;;;;;12.00;3.50;;;;;;;13.55;79.78;99249.17;109733;1251;72852;-63
2023/10/13 12:10:40;;;;;;;10.00;3.90;;;;;;;13.69;79.74;99245.44;109763;1250;67771;-64
2023/10/13 12:13:26;;;;;;;12.80;3.30;;;;;;;13.73;79.68;99244.11;109683;1250;72502;-62
2023/10/13 12:16:13;;;;;;;11.40;3.90;;;;;;;13.82;79.84;99230.86;109667;1254;59456;-63
2023/10/13 12:19:01;;;;;;;11.40;4.00;;;;;;;13.90;79.80;99226.60;109623;1250;59277;-63
2023/10/13 12:21:48;;;;;;;15.90;4.10;;;;;;;13.87;80.37;99227.89;109591;1250;73815;-63
2023/10/13 12:27:27;;;;;;;14.00;4.20;;;;;;;14.09;80.85;99203.66;109667;1250;71342;-63
2023/10/13 12:30:14;;;;;;;14.40;4.90;;;;;;;14.24;80.72;99194.90;109569;1251;60559;-62
2023/10/13 12:33:08;;;;;;;14.70;5.80;;;;;;;14.28;80.88;99190.39;109587;1251;60176;-62
2023/10/13 12:54:16;;;;;;;19.80;6.60;;;;;;;13.83;86.18;99145.55;109679;1250;66687;-66
2023/10/13 12:57:03;;;;;;;14.20;6.30;;;;;;;13.81;86.52;99131.15;109587;1250;72542;-62
2023/10/13 12:59:53;;;;;;;15.20;6.10;;;;;;;13.73;87.23;99130.40;109524;1250;59592;-65
2023/10/13 13:02:40;;;;;;;15.80;6.20;;;;;;;13.60;88.32;99117.44;109543;1250;59078;-64
2023/10/13 13:05:28;;;;;;;16.50;7.80;;;;;;;13.51;89.21;99103.88;109738;1250;71807;-65
2023/10/13 13:08:21;;;;;;;18.90;7.80;;;;;;;13.49;89.43;99095.19;109684;1250;66488;-64
2023/10/13 13:11:08;;;;;;;17.40;6.90;;;;;;;13.51;89.63;99095.95;109534;1251;72610;-65
2023/10/13 13:13:54;;;;;;;19.10;7.00;;;;;;;13.49;90.24;99090.71;109597;1251;60439;-64
2023/10/13 13:16:42;;;;;;;17.50;7.30;;;;;;;13.46;90.81;99086.23;109499;1251;60066;-64
2023/10/13 13:19:28;;;;;;;16.90;7.10;;;;;;;13.41;91.27;99084.54;109413;1251;72073;-62
2023/10/13 13:22:15;;;;;;;23.40;7.80;;;;;;;13.38;91.82;99081.45;109594;1251;67924;-64
2023/10/13 13:25:02;;;;;;;18.30;7.70;;;;;;;13.34;92.90;99076.00;109603;1250;72748;-63
2023/10/13 13:27:48;;;;;;;15.80;6.20;;;;;;;13.29;93.56;99080.45;109494;1251;58074;-65
2023/10/13 13:30:37;;;;;;;20.90;7.90;;;;;;;13.21;95.12;99077.56;109618;1251;60020;-62
2023/10/13 13:33:25;;;;;;;22.20;8.10;;;;;;;13.07;96.22;99069.52;109522;1251;71963;-63
2023/10/13 13:36:15;;;;;;;19.00;7.90;;;;;;;13.01;98.12;99070.40;109008;1258;67726;-64
2023/10/13 13:39:04;;;;;;;19.60;8.90;;;;;;;12.94;99.00;99063.69;109022;1259;73985;-63
2023/10/13 13:41:56;;;;;;;16.70;6.50;;;;;;;12.94;99.04;99063.05;108996;1259;59517;-64
2023/10/13 13:44:48;;;;;;;15.90;7.60;;;;;;;12.90;99.96;99048.62;108954;1259;60148;-66
2023/10/13 13:47:35;;;;;;;20.50;8.00;;;;;;;12.90;100.00;99042.46;109065;1258;73039;-66
2023/10/13 13:50:28;;;;;;;22.20;7.80;;;;;;;12.89;100.00;99034.69;108963;1259;67867;-66
2023/10/13 13:53:20;;;;;;;19.20;9.40;;;;;;;12.91;100.00;99031.44;109021;1258;72559;-65
2023/10/13 13:56:07;;;;;;;22.00;10.70;;;;;;;12.91;100.00;99021.35;109023;1257;58159;-63
2023/10/13 13:58:58;;;;;;;21.50;10.80;;;;;;;12.87;100.00;99004.87;108959;1257;58921;-64
2023/10/13 14:01:45;;;;;;;27.10;11.70;;;;;;;12.90;100.00;99002.35;108997;1258;72776;-65
2023/10/13 14:04:33;;;;;;;22.80;10.80;;;;;;;12.91;100.00;98991.10;109005;1259;67703;-66
2023/10/13 14:07:23;;;;;;;23.40;10.90;;;;;;;12.89;100.00;98986.42;109265;1253;73680;-63
2023/10/13 14:10:18;;;;;;;21.60;10.80;;;;;;;12.92;100.00;98979.96;109544;1251;60361;-64
2023/10/13 14:13:14;;;;;;;25.90;11.80;;;;;;;12.94;100.00;98978.64;109684;1251;60362;-67
2023/10/13 14:16:02;;;;;;;23.20;11.20;;;;;;;12.93;100.00;98969.15;109596;1251;72798;-63
2023/10/13 14:18:51;;;;;;;21.50;10.40;;;;;;;12.94;100.00;98957.84;109171;1253;67905;-62
2023/10/13 14:21:38;;;;;;;22.40;10.90;;;;;;;12.95;100.00;98958.98;109520;1255;72529;-63
2023/10/13 14:24:33;;;;;;;24.20;11.20;;;;;;;12.92;100.00;98948.05;109284;1251;59537;-62
2023/10/13 14:27:22;;;;;;;22.40;9.40;;;;;;;12.91;100.00;98928.92;109535;1251;61040;-62
2023/10/13 14:30:10;;;;;;;24.40;12.20;;;;;;;12.94;100.00;98927.20;109575;1251;73052;-63
2023/10/13 14:33:00;;;;;;;22.40;9.50;;;;;;;12.94;100.00;98916.15;109597;1251;67223;-62
2023/10/13 14:35:47;;;;;;;23.10;10.20;;;;;;;12.94;100.00;98911.57;109523;1251;71401;-61
2023/10/13 14:38:33;;;;;;;20.90;10.50;;;;;;;12.94;100.00;98910.08;109507;1251;59284;-65
2023/10/13 14:41:20;;;;;;;21.90;10.70;;;;;;;12.93;100.00;98911.47;109614;1251;59013;-63
2023/10/13 14:44:07;;;;;;;21.20;10.50;;;;;;;12.93;100.00;98906.23;109594;1251;72666;-64
2023/10/13 14:46:54;;;;;;;21.90;12.20;;;;;;;12.94;100.00;98885.75;109585;1251;66556;-62
2023/10/13 14:49:41;;;;;;;21.20;11.20;;;;;;;12.96;100.00;98881.97;109486;1251;73473;-64
2023/10/13 14:52:31;;;;;;;22.00;11.00;;;;;;;13.00;100.00;98882.10;109573;1250;59328;-63
2023/10/13 14:55:18;;;;;;;22.60;13.40;;;;;;;13.01;100.00;98871.44;109573;1250;61465;-64
2023/10/13 14:58:07;;;;;;;22.00;12.30;;;;;;;13.05;100.00;98861.83;109575;1251;72058;-63
2023/10/13 15:00:54;;;;;;;23.70;13.30;;;;;;;13.05;100.00;98837.92;109630;1251;68899;-66
2023/10/13 15:03:57;;;;;;;24.80;13.70;;;;;;;13.15;100.00;98835.50;109598;1251;70091;-64
2023/10/13 15:06:45;;;;;;;22.00;12.90;;;;;;;13.19;100.00;98831.96;109439;1251;58037;-63
2023/10/13 15:09:31;;;;;;;25.50;13.30;;;;;;;13.24;100.00;98833.93;109452;1251;59486;-63
2023/10/13 15:12:20;;;;;;;19.30;11.60;;;;;;;13.26;100.00;98825.68;109638;1250;73341;-63
2023/10/13 15:15:19;;;;;;;22.80;13.60;;;;;;;13.31;100.00;98817.16;109424;1250;67858;-61
2023/10/13 15:18:05;;;;;;;24.10;12.70;;;;;;;13.35;100.00;98812.11;109443;1251;72567;-62
2023/10/13 15:20:51;;;;;;;21.40;11.70;;;;;;;13.38;100.00;98802.49;109588;1251;59430;-64
2023/10/13 15:23:42;;;;;;;23.10;12.60;;;;;;;13.42;100.00;98798.52;109651;1250;60281;-62
2023/10/13 15:26:38;;;;;;;21.20;13.50;;;;;;;13.47;100.00;98800.36;109612;1250;74183;-60
2023/10/13 15:29:35;;;;;;;21.10;13.50;;;;;;;13.50;100.00;98783.75;109567;1251;66295;-65
2023/10/13 15:35:28;;;;;;;22.10;11.40;;;;;;;13.60;100.00;98778.75;109576;1251;57943;-63
2023/10/13 15:38:14;;;;;;;19.80;11.70;;;;;;;13.64;100.00;98775.77;109738;1250;59026;-63
2023/10/13 15:41:04;;;;;;;21.70;11.60;;;;;;;13.67;100.00;98769.08;109612;1251;74325;-64
2023/10/13 15:43:51;;;;;;;23.20;11.90;;;;;;;13.71;100.00;98772.30;109772;1251;66576;-63
2023/10/13 15:46:38;;;;;;;20.70;12.10;;;;;;;13.76;100.00;98765.89;109774;1250;72452;-68